Terminal Aerodrome Forecast
Issued by NWS Wilmington, OH

Current Version | Previous Version | Graphics & Text | Print | Product List | Glossary On
Versions: 1 2 3 4 5 6 7 8 9 10 11 12 13 14 15 16 17 18 19
000
FTUS41 KILN 241700
TAFILN
TAF
KILN 241740Z 2418/2518 07006KT P6SM SCT040 BKN250
     FM250000 00000KT P6SM BKN200
     FM250600 00000KT 4SM BR SCT200
     FM251000 00000KT 2SM BR FEW060 SCT200
     FM251300 12005KT P6SM SCT060=

USA.gov is the U.S. government's official web portal to all federal, state and local government web resources and services.